ニノイ・アキノ国際空港 の過去48時間の天気

ニノイ・アキノ国際空港 (Ninoy Aquino Inter-National Airport)

現在時刻: 10/29 00:39 PST (10/28 16:39 UTC) 以下の時間は現地時間です。

過去48時間のMETAR気象情報
時間 風向 風速(m/s) 視程 気温(℃) 湿度(%) 気圧(hPa) 天気現象
29 00:00 3 9000m 27 89 1014 弱いしゅう雨
28 23:00 不定 1 10km以上 26 94 1014
28 22:00 東南東 2 9000m 26 94 1014 弱いしゅう雨
28 20:00 南南東 2 10km以上 26 94 1013
28 19:00 南東 3 7000m 27 94 1012 弱い雨
28 18:00 2 10km以上 29 79 1012 弱いしゅう雨
28 17:00 西南西 5 10km以上 29 84 1011
28 16:00 西 5 10km以上 30 70 1010
28 15:00 西北西 4 10km以上 31 62 1010
28 14:00 西 5 10km以上 32 63 1010
28 13:00 西北西 4 10km以上 32 67 1011
28 12:00 2 10km以上 33 56 1011
28 11:00 3 10km以上 32 63 1012
28 10:00 3 10km以上 31 66 1013
28 09:00 3 10km以上 30 70 1012
28 08:00 東南東 3 10km以上 30 70 1012
28 07:00 2 10km以上 28 79 1012
28 06:00 1 10km以上 26 89 1011
28 05:00 静穏 0 10km以上 26 89 1010
28 04:00 東北東 2 10km以上 27 84 1010
28 03:00 東北東 1 10km以上 26 89 1010
28 02:00 不定 1 10km以上 27 84 1010
28 01:00 東南東 2 10km以上 27 89 1010
28 00:00 不定 1 10km以上 27 84 1011
27 23:00 不定 1 10km以上 27 84 1011
27 22:00 東南東 2 10km以上 28 79 1011
27 21:00 3 10km以上 28 79 1010
27 20:00 南東 4 10km以上 28 79 1010
27 19:00 南東 3 10km以上 28 79 1009
27 18:00 南東 3 10km以上 29 74 1008
27 17:00 南東 4 10km以上 29 74 1008
27 16:00 東南東 4 10km以上 30 70 1007
27 15:00 南東 4 10km以上 30 70 1006
27 14:00 南東 4 10km以上 30 75 1006
27 13:00 南東 3 10km以上 30 75 1007
27 12:00 3 10km以上 30 75 1008 弱いしゅう雨
27 11:00 4 10km以上 31 66 1008
27 10:00 東南東 4 10km以上 30 75 1009 弱いしゅう雨
27 09:00 5 10km以上 29 74 1008
27 08:00 東南東 4 10km以上 28 79 1008
27 07:00 東南東 4 10km以上 27 84 1007
27 06:00 東南東 3 10km以上 27 84 1006
27 05:00 東南東 4 10km以上 27 79 1005
27 04:00 4 10km以上 27 79 1005
27 03:00 東南東 4 10km以上 27 79 1005
27 02:00 3 10km以上 27 79 1005
27 01:00 東南東 4 10km以上 27 79 1006 弱い雨
RPLL 281600Z 01006KT 320V050 9000 -SHRA SCT022 OVC090 27/25 Q1014 NOSIG RMK A2994
RPLL 281500Z VRB02KT 9999 SCT023 BKN090 26/25 Q1014 RESHRA NOSIG RMK A2994
RPLL 281400Z 11003KT 070V190 9000 -SHRA SCT022 BKN090 26/25 Q1014 NOSIG RMK A2994
RPLL 281200Z 16004KT 040V210 9999 SCT023 BKN090 26/25 Q1013 RERA NOSIG RMK A2991
RPLL 281100Z 14005KT 050V200 7000 -RA FEW022CB SCT023 OVC090 27/26 Q1012 NOSIG RMK A2988 CB E
RPLL 281000Z 19003KT 110V260 9999 -SHRA FEW022CB SCT023 BKN100 29/25 Q1012 NOSIG RMK A2988 CB S
RPLL 280900Z 25010KT 9999 FEW022CB FEW023 BKN100 29/26 Q1011 NOSIG RMK A2985 CB E SE
RPLL 280800Z 26010KT 9999 FEW022CB FEW023 BKN100 30/24 Q1010 NOSIG RMK A2983 CB E SE
RPLL 280700Z 30007KT 9999 FEW023CB FEW025 BKN100 31/23 Q1010 NOSIG RMK A2983 CB S
RPLL 280600Z 28009KT 9999 FEW023CB FEW025 SCT300 32/24 Q1010 NOSIG RMK A2983 CB E S
RPLL 280500Z 29008KT 260V320 9999 FEW025 32/25 Q1011 NOSIG RMK A2985
RPLL 280400Z 08004KT 010V150 9999 FEW025 33/23 Q1011 NOSIG RMK A2985
RPLL 280300Z 08005KT 020V160 9999 FEW025 SCT100 32/24 Q1012 NOSIG RMK A2988
RPLL 280200Z 10005KT 050V190 9999 FEW023TCU SCT100 31/24 Q1013 NOSIG RMK A2991 TCU W
RPLL 280100Z 10006KT 050V140 9999 FEW023TCU SCT100 30/24 Q1012 NOSIG RMK A2988 TCU W
RPLL 280000Z 11005KT 040V180 9999 FEW025 BKN100 30/24 Q1012 NOSIG RMK A2988
RPLL 272300Z 10003KT 050V160 9999 FEW025 SCT100 28/24 Q1012 NOSIG RMK A2988
RPLL 272200Z 09002KT 9999 FEW025 SCT100 26/24 Q1011 NOSIG RMK A2985
RPLL 272100Z 00000KT 9999 FEW025 SCT100 26/24 Q1010 NOSIG RMK A2983
RPLL 272000Z 07003KT 9999 FEW025 BKN100 27/24 Q1010 NOSIG RMK A2983
RPLL 271900Z 07002KT 9999 FEW025 SCT250 26/24 Q1010 NOSIG RMK A2983
RPLL 271800Z VRB02KT 9999 FEW025 27/24 Q1010 NOSIG RMK A2983
RPLL 271700Z 11003KT 080V140 9999 FEW025 27/25 Q1010 NOSIG RMK A2983
RPLL 271600Z VRB01KT 9999 FEW025 SCT100 27/24 Q1011 NOSIG RMK A2985
RPLL 271500Z VRB02KT 9999 FEW025 SCT100 27/24 Q1011 NOSIG RMK A2985
RPLL 271400Z 12004KT 080V200 9999 FEW025 BKN100 28/24 Q1011 NOSIG RMK A2985
RPLL 271300Z 09005KT 070V130 9999 FEW025 BKN100 28/24 Q1010 NOSIG RMK A2983
RPLL 271200Z 13007KT 080V170 9999 SCT025 BKN100 28/24 Q1010 NOSIG RMK A2983
RPLL 271100Z 14005KT 090V200 9999 FEW023 BKN100 28/24 Q1009 NOSIG RMK A2980
RPLL 271000Z 13006KT 080V160 9999 FEW023 BKN100 29/24 Q1008 NOSIG RMK A2977
RPLL 270900Z 14008KT 070V190 9999 FEW023 BKN100 29/24 Q1008 NOSIG RMK A2977
RPLL 270800Z 11007KT 080V170 9999 FEW025 BKN100 30/24 Q1007 NOSIG RMK A2974
RPLL 270700Z 14008KT 090V230 9999 FEW025 BKN100 30/24 Q1006 NOSIG RMK A2971
RPLL 270600Z 14007KT 090V210 9999 FEW025 BKN100 30/25 Q1006 NOSIG RMK A2971
RPLL 270500Z 13006KT 060V200 9999 SCT023 BKN090 30/25 Q1007 RESHRA NOSIG RMK A2974
RPLL 270400Z VRB06KT 9999 -SHRA SCT023 BKN090 30/25 Q1008 NOSIG RMK A2977
RPLL 270300Z VRB07KT 9999 FEW025 BKN100 31/24 Q1008 RESHRA NOSIG RMK A2977
RPLL 270200Z 11007KT 080V170 9999 -SHRA FEW023 BKN100 30/25 Q1009 NOSIG RMK A2980
RPLL 270100Z 10009KT 050V150 9999 FEW023 BKN100 29/24 Q1008 NOSIG RMK A2977
RPLL 270000Z 12008KT 070V150 9999 FEW023 BKN100 28/24 Q1008 NOSIG RMK A2977
RPLL 262300Z 11007KT 080V150 9999 FEW023 BKN100 27/24 Q1007 RMK A2974
RPLL 262200Z 12005KT 080V160 9999 FEW015 BKN100 27/24 Q1006 TEMPO -SHRA RMK A2971
RPLL 262100Z 12007KT 080V170 9999 FEW023 OVC100 27/23 Q1005 TEMPO -SHRA RMK A2968
RPLL 262000Z 10008KT 070V140 9999 FEW023 BKN100 27/23 Q1005 NOSIG RMK A2968
RPLL 261900Z 12008KT 080V170 9999 FEW023 BKN100 27/23 Q1005 NOSIG RMK A2968
RPLL 261800Z 10006G16KT 070V130 9999 SCT023 BKN090 27/23 Q1005 RERA NOSIG RMK A2968
RPLL 261700Z 11008KT 080V160 9999 -RA SCT022 OVC080 27/23 Q1006 NOSIG RMK A2971